Time;durP1;ratioP1;P1;durP2;ratioP2;P2;SDS_P1;SDS_P2;PMS_P1;PMS_P2;Temp;Humidity;BMP_temperature;BMP_pressure;BME280_temperature;BME280_humidity;BME280_pressure;Samples;Min_cycle;Max_cycle;Signal;HPM_P1;HPM_P2
2022/04/20 00:01:49;;;;;;;25.40;14.95;;;;;;;;;;5015286;28;20065;-78
2022/04/20 00:04:24;;;;;;;21.65;14.57;;;;;;;;;;5015294;28;20113;-78
2022/04/20 00:07:17;;;;;;;24.57;16.20;;;;;;;;;;4998204;28;20443;-78
2022/04/20 00:09:48;;;;;;;40.50;24.77;;;;;;;;;;5015460;28;20326;-78
2022/04/20 00:12:16;;;;;;;22.52;13.55;;;;;;;;;;4997933;28;20050;-78
2022/04/20 00:14:45;;;;;;;16.17;11.57;;;;;;;;;;4997276;28;20064;-78
2022/04/20 00:17:14;;;;;;;13.95;10.77;;;;;;;;;;4997495;28;20046;-78
2022/04/20 00:19:50;;;;;;;10.65;8.20;;;;;;;;;;4997819;28;20053;-78
2022/04/20 00:22:43;;;;;;;10.98;8.18;;;;;;;;;;4997640;28;20054;-78
2022/04/20 00:25:15;;;;;;;10.93;7.68;;;;;;;;;;4997897;28;20050;-78
2022/04/20 00:27:47;;;;;;;11.85;8.73;;;;;;;;;;4997373;28;20045;-78
2022/04/20 00:30:15;;;;;;;10.60;8.18;;;;;;;;;;4997595;28;20416;-78
2022/04/20 00:32:46;;;;;;;11.07;8.07;;;;;;;;;;4997172;28;20045;-77
2022/04/20 00:35:14;;;;;;;10.60;7.85;;;;;;;;;;5015060;28;20100;-77
2022/04/20 00:37:46;;;;;;;10.77;7.63;;;;;;;;;;5015254;28;20044;-77
2022/04/20 00:40:18;;;;;;;11.05;7.55;;;;;;;;;;4997087;28;20077;-77
2022/04/20 00:42:50;;;;;;;10.43;7.22;;;;;;;;;;4997084;28;20133;-77
2022/04/20 00:45:18;;;;;;;10.45;8.07;;;;;;;;;;4997596;28;20038;-77
2022/04/20 00:47:50;;;;;;;10.60;7.50;;;;;;;;;;5014481;28;20499;-78
2022/04/20 00:50:22;;;;;;;10.52;7.90;;;;;;;;;;5014642;28;20045;-77
2022/04/20 00:52:52;;;;;;;15.23;8.95;;;;;;;;;;4997087;28;20049;-77
2022/04/20 00:55:30;;;;;;;11.68;8.15;;;;;;;;;;4996833;28;20077;-77
2022/04/20 00:58:02;;;;;;;11.82;8.65;;;;;;;;;;4996587;28;20056;-77
2022/04/20 01:00:36;;;;;;;12.70;8.98;;;;;;;;;;4996980;28;20492;-77
2022/04/20 01:03:06;;;;;;;15.00;9.20;;;;;;;;;;4996391;28;20060;-77
2022/04/20 01:05:54;;;;;;;19.15;12.05;;;;;;;;;;5012956;28;20129;-77
2022/04/20 01:08:41;;;;;;;14.40;9.95;;;;;;;;;;4996992;28;20108;-77
2022/04/20 01:11:50;;;;;;;13.40;8.75;;;;;;;;;;4996529;28;20053;-77
2022/04/20 01:14:51;;;;;;;13.43;8.90;;;;;;;;;;4996333;28;20048;-77
2022/04/20 01:17:30;;;;;;;12.15;8.95;;;;;;;;;;5014041;28;20049;-77
2022/04/20 01:20:18;;;;;;;11.38;8.88;;;;;;;;;;5014493;28;20440;-77
2022/04/20 01:23:04;;;;;;;13.27;8.23;;;;;;;;;;4996192;28;20085;-77
2022/04/20 01:25:52;;;;;;;12.18;8.95;;;;;;;;;;4996692;28;20050;-77
2022/04/20 01:28:41;;;;;;;15.55;10.82;;;;;;;;;;4996199;28;20132;-77
2022/04/20 01:31:39;;;;;;;14.25;10.38;;;;;;;;;;4934280;29;20056;-77
2022/04/20 01:34:21;;;;;;;15.90;11.10;;;;;;;;;;4919924;29;20052;-77
2022/04/20 01:36:51;;;;;;;16.35;10.52;;;;;;;;;;4991523;28;20061;-78
2022/04/20 01:39:21;;;;;;;14.30;10.60;;;;;;;;;;5013971;28;20046;-77
2022/04/20 01:41:52;;;;;;;12.93;9.98;;;;;;;;;;4996067;28;20053;-77
2022/04/20 01:44:24;;;;;;;12.25;9.13;;;;;;;;;;4995952;28;20104;-77
2022/04/20 01:46:56;;;;;;;13.48;9.32;;;;;;;;;;5013363;28;20041;-77
2022/04/20 01:49:39;;;;;;;13.15;9.07;;;;;;;;;;5013762;28;20053;-77
2022/04/20 01:52:27;;;;;;;13.75;9.63;;;;;;;;;;4992716;28;20137;-77
2022/04/20 01:55:08;;;;;;;11.18;8.40;;;;;;;;;;5013352;28;20060;-77
2022/04/20 01:57:58;;;;;;;11.13;8.05;;;;;;;;;;5013532;28;20499;-77
2022/04/20 02:00:46;;;;;;;12.95;8.90;;;;;;;;;;4994731;28;20046;-78
2022/04/20 02:03:53;;;;;;;13.40;8.32;;;;;;;;;;4992331;28;20043;-78
2022/04/20 02:09:48;;;;;;;16.13;9.93;;;;;;;;;;4992561;28;20078;-78
2022/04/20 02:15:40;;;;;;;13.98;10.25;;;;;;;;;;4992062;28;20046;-78
2022/04/20 02:18:53;;;;;;;17.75;11.48;;;;;;;;;;4993859;28;20628;-78
2022/04/20 02:21:37;;;;;;;15.88;10.75;;;;;;;;;;4992579;28;20106;-78
2022/04/20 02:24:05;;;;;;;18.20;11.05;;;;;;;;;;4991596;28;20509;-78
2022/04/20 02:30:08;;;;;;;17.75;11.30;;;;;;;;;;4991314;28;20405;-77
2022/04/20 02:32:54;;;;;;;16.00;11.07;;;;;;;;;;4991935;28;20105;-77
2022/04/20 02:35:22;;;;;;;14.07;10.17;;;;;;;;;;4992430;28;20051;-77
2022/04/20 02:37:49;;;;;;;16.23;11.05;;;;;;;;;;4992645;28;20084;-77
2022/04/20 02:44:17;;;;;;;18.10;11.57;;;;;;;;;;4991926;28;20136;-78
2022/04/20 02:49:52;;;;;;;14.82;11.23;;;;;;;;;;4993654;28;20460;-78
2022/04/20 02:52:22;;;;;;;15.45;11.15;;;;;;;;;;4992153;28;20054;-78
2022/04/20 02:54:52;;;;;;;17.35;11.30;;;;;;;;;;4992001;28;20469;-78
2022/04/20 02:57:22;;;;;;;24.10;13.40;;;;;;;;;;4991837;28;20497;-78
2022/04/20 02:59:58;;;;;;;21.63;12.73;;;;;;;;;;4995856;28;20046;-78
2022/04/20 03:02:29;;;;;;;16.35;10.70;;;;;;;;;;4995324;28;20063;-79
2022/04/20 03:04:57;;;;;;;15.13;11.25;;;;;;;;;;4995575;28;20105;-78
2022/04/20 03:07:51;;;;;;;13.30;10.05;;;;;;;;;;4995912;28;20125;-78
2022/04/20 03:10:23;;;;;;;15.05;9.85;;;;;;;;;;4995567;28;20444;-78
2022/04/20 03:12:56;;;;;;;16.95;11.50;;;;;;;;;;4995615;28;20047;-78
2022/04/20 03:15:24;;;;;;;15.38;11.23;;;;;;;;;;4995669;28;20055;-78
2022/04/20 03:17:54;;;;;;;18.95;10.95;;;;;;;;;;4995695;28;20043;-78
2022/04/20 03:20:34;;;;;;;16.02;10.82;;;;;;;;;;4995099;28;20052;-78
2022/04/20 03:23:04;;;;;;;15.18;10.05;;;;;;;;;;4994915;28;20047;-78
2022/04/20 03:25:37;;;;;;;18.95;11.10;;;;;;;;;;4995442;28;20050;-78
2022/04/20 03:28:28;;;;;;;18.08;11.43;;;;;;;;;;4996499;28;20055;-78
2022/04/20 03:30:57;;;;;;;22.08;12.52;;;;;;;;;;4995039;28;20556;-78
2022/04/20 03:33:24;;;;;;;18.77;12.23;;;;;;;;;;4996334;28;20401;-78
2022/04/20 03:35:53;;;;;;;21.00;13.13;;;;;;;;;;4996117;28;20038;-78
2022/04/20 03:38:47;;;;;;;24.42;13.88;;;;;;;;;;4995031;28;20038;-78
2022/04/20 03:41:18;;;;;;;17.35;12.68;;;;;;;;;;4994982;28;20049;-78
2022/04/20 03:43:46;;;;;;;22.15;13.52;;;;;;;;;;4994644;28;20413;-78
2022/04/20 03:46:17;;;;;;;24.17;14.90;;;;;;;;;;4994594;28;20042;-78
2022/04/20 03:48:53;;;;;;;23.40;14.07;;;;;;;;;;4995017;28;20853;-78
2022/04/20 03:51:20;;;;;;;27.38;15.00;;;;;;;;;;4994548;28;20041;-78
2022/04/20 03:57:25;;;;;;;23.88;15.00;;;;;;;;;;4994943;28;20073;-77
2022/04/20 04:00:08;;;;;;;20.17;14.00;;;;;;;;;;4995427;28;20401;-77
2022/04/20 04:03:09;;;;;;;24.42;15.77;;;;;;;;;;5011343;28;20050;-77
2022/04/20 04:05:40;;;;;;;22.33;14.85;;;;;;;;;;4997381;28;20145;-76
2022/04/20 04:08:22;;;;;;;20.17;13.85;;;;;;;;;;4997559;28;20049;-77
2022/04/20 04:10:50;;;;;;;22.25;14.40;;;;;;;;;;4997038;28;20054;-77
2022/04/20 04:13:29;;;;;;;26.63;17.65;;;;;;;;;;4998217;28;20042;-77
2022/04/20 04:16:23;;;;;;;23.52;14.43;;;;;;;;;;4997365;28;20053;-77
2022/04/20 04:18:54;;;;;;;22.48;14.20;;;;;;;;;;4997436;28;20057;-77
2022/04/20 04:21:22;;;;;;;21.20;14.23;;;;;;;;;;4981672;28;20088;-77
2022/04/20 04:23:51;;;;;;;23.25;13.50;;;;;;;;;;4997153;28;20038;-77
2022/04/20 04:26:31;;;;;;;21.38;13.85;;;;;;;;;;4998134;28;20100;-77
2022/04/20 04:29:04;;;;;;;24.17;15.25;;;;;;;;;;4996646;28;20049;-79
2022/04/20 04:31:34;;;;;;;24.48;14.93;;;;;;;;;;4995876;28;20046;-77
2022/04/20 04:34:05;;;;;;;21.45;14.98;;;;;;;;;;4997392;28;20100;-77
2022/04/20 04:36:35;;;;;;;23.48;14.38;;;;;;;;;;4996997;28;20133;-76
2022/04/20 04:39:03;;;;;;;22.70;15.40;;;;;;;;;;4997403;28;20136;-77
2022/04/20 04:41:34;;;;;;;32.88;17.40;;;;;;;;;;4996750;28;20048;-78
2022/04/20 04:44:10;;;;;;;31.52;17.35;;;;;;;;;;4997023;28;20053;-77
2022/04/20 04:49:47;;;;;;;43.63;23.17;;;;;;;;;;5013578;28;20053;-77
2022/04/20 04:52:18;;;;;;;48.17;23.95;;;;;;;;;;4997030;28;20128;-77
2022/04/20 04:54:57;;;;;;;42.72;22.33;;;;;;;;;;4996753;28;20501;-77
2022/04/20 04:57:32;;;;;;;41.85;21.42;;;;;;;;;;4997094;28;20073;-76
2022/04/20 05:00:03;;;;;;;34.95;19.65;;;;;;;;;;4996602;28;20096;-77
2022/04/20 05:02:42;;;;;;;27.27;14.90;;;;;;;;;;4996521;28;20485;-76
2022/04/20 05:05:10;;;;;;;20.00;12.50;;;;;;;;;;4978375;28;20042;-77
2022/04/20 05:07:39;;;;;;;21.83;14.52;;;;;;;;;;4996789;28;20045;-76
2022/04/20 05:10:15;;;;;;;21.95;14.32;;;;;;;;;;4996676;28;20412;-76
2022/04/20 05:12:49;;;;;;;14.35;10.27;;;;;;;;;;4996444;28;20049;-76
2022/04/20 05:15:21;;;;;;;15.30;9.38;;;;;;;;;;4996731;28;20140;-76
2022/04/20 05:17:50;;;;;;;14.85;9.52;;;;;;;;;;4990726;28;20046;-76
2022/04/20 05:20:25;;;;;;;14.82;10.20;;;;;;;;;;4992895;28;20125;-76
2022/04/20 05:22:53;;;;;;;9.85;7.80;;;;;;;;;;4995919;28;20045;-75
2022/04/20 05:25:25;;;;;;;10.07;7.47;;;;;;;;;;4996098;28;20046;-75
2022/04/20 05:27:58;;;;;;;9.77;8.05;;;;;;;;;;4996517;28;20057;-77
2022/04/20 05:30:27;;;;;;;11.68;7.95;;;;;;;;;;4995530;28;20157;-76
2022/04/20 05:32:57;;;;;;;10.35;7.78;;;;;;;;;;4996047;28;20485;-76
2022/04/20 05:35:28;;;;;;;9.82;7.85;;;;;;;;;;4996172;28;20048;-76
2022/04/20 05:43:45;;;;;;;10.98;6.80;;;;;;;;;;4995996;28;20424;-76
2022/04/20 05:46:17;;;;;;;8.90;6.63;;;;;;;;;;4995815;28;20056;-76
2022/04/20 05:48:58;;;;;;;10.38;6.07;;;;;;;;;;4996097;28;20107;-77
2022/04/20 05:51:26;;;;;;;9.88;6.00;;;;;;;;;;4995820;28;20550;-75
2022/04/20 05:53:55;;;;;;;10.50;5.93;;;;;;;;;;4978408;28;20042;-77
2022/04/20 05:56:27;;;;;;;7.55;5.18;;;;;;;;;;4992274;28;20077;-76
2022/04/20 05:59:20;;;;;;;6.75;4.90;;;;;;;;;;4995873;28;20037;-73
2022/04/20 06:01:50;;;;;;;7.22;5.13;;;;;;;;;;4995661;28;20058;-78
2022/04/20 06:04:25;;;;;;;8.57;5.28;;;;;;;;;;4995862;28;20061;-78
2022/04/20 06:07:55;;;;;;;7.20;4.90;;;;;;;;;;4933997;29;20103;-86
2022/04/20 06:10:38;;;;;;;7.25;5.25;;;;;;;;;;4928022;28;20052;-77
2022/04/20 06:13:13;;;;;;;9.93;6.07;;;;;;;;;;5012632;28;20073;-73
2022/04/20 06:16:39;;;;;;;9.18;5.80;;;;;;;;;;5009748;28;20056;-78
2022/04/20 06:19:24;;;;;;;12.50;8.82;;;;;;;;;;4995249;28;20096;-77
2022/04/20 06:22:15;;;;;;;11.68;7.90;;;;;;;;;;4995335;28;20048;-83
2022/04/20 06:25:09;;;;;;;10.10;6.45;;;;;;;;;;4996172;28;20053;-79
2022/04/20 06:31:35;;;;;;;11.18;5.65;;;;;;;;;;5013344;28;20045;-85
2022/04/20 06:34:55;;;;;;;18.92;8.60;;;;;;;;;;5001582;28;20060;-78
2022/04/20 06:37:39;;;;;;;15.20;7.88;;;;;;;;;;5017387;28;20044;-75
2022/04/20 06:40:18;;;;;;;13.13;5.65;;;;;;;;;;4982416;28;20054;-77
2022/04/20 06:43:29;;;;;;;13.85;7.53;;;;;;;;;;4997488;28;20173;-77
2022/04/20 06:46:35;;;;;;;6.65;4.05;;;;;;;;;;4978231;28;20064;-79
2022/04/20 06:49:23;;;;;;;5.30;3.85;;;;;;;;;;4957053;28;20125;-79
2022/04/20 07:00:29;;;;;;;4.45;4.05;;;;;;;;;;4995317;28;20054;-79
2022/04/20 07:03:21;;;;;;;6.45;3.78;;;;;;;;;;4986078;28;20053;-80
2022/04/20 07:06:15;;;;;;;3.90;3.13;;;;;;;;;;4998763;28;20092;-80
2022/04/20 07:09:04;;;;;;;5.68;3.63;;;;;;;;;;5016757;28;20215;-72
2022/04/20 07:11:42;;;;;;;4.32;3.80;;;;;;;;;;4984526;28;20125;-80
2022/04/20 07:14:13;;;;;;;6.75;3.83;;;;;;;;;;4998525;28;20136;-80
2022/04/20 07:16:41;;;;;;;4.78;4.07;;;;;;;;;;4998519;28;20038;-83
2022/04/20 07:19:17;;;;;;;4.85;3.80;;;;;;;;;;4997847;28;20378;-81
2022/04/20 07:22:12;;;;;;;4.72;3.75;;;;;;;;;;4992710;28;20081;-81
2022/04/20 07:24:51;;;;;;;5.22;3.95;;;;;;;;;;4998413;28;20076;-80
2022/04/20 07:27:48;;;;;;;7.72;4.45;;;;;;;;;;5016534;28;20046;-82
2022/04/20 07:30:48;;;;;;;6.40;4.60;;;;;;;;;;4980722;28;20104;-81
2022/04/20 07:34:09;;;;;;;6.72;4.68;;;;;;;;;;4962360;28;20058;-81
2022/04/20 07:37:12;;;;;;;7.82;6.13;;;;;;;;;;4919580;29;20512;-80
2022/04/20 07:40:08;;;;;;;8.52;5.10;;;;;;;;;;4997114;28;20065;-81
2022/04/20 07:43:00;;;;;;;7.35;5.10;;;;;;;;;;5007375;28;20050;-83
2022/04/20 07:46:05;;;;;;;7.85;5.80;;;;;;;;;;5015191;28;20061;-82
2022/04/20 07:52:56;;;;;;;6.97;5.95;;;;;;;;;;5015960;28;20046;-80
2022/04/20 07:56:14;;;;;;;9.07;5.63;;;;;;;;;;4965630;28;20064;-80
2022/04/20 07:59:05;;;;;;;7.82;5.15;;;;;;;;;;4983703;28;20046;-81
2022/04/20 08:01:40;;;;;;;8.70;5.60;;;;;;;;;;4989217;28;20046;-81
2022/04/20 08:04:52;;;;;;;7.35;5.47;;;;;;;;;;4994782;28;20065;-80
2022/04/20 08:07:28;;;;;;;6.70;5.47;;;;;;;;;;4994459;28;20046;-80
2022/04/20 08:10:06;;;;;;;6.82;5.20;;;;;;;;;;4994585;28;20046;-81
2022/04/20 08:16:23;;;;;;;6.38;4.53;;;;;;;;;;4993980;28;20038;-80
2022/04/20 08:19:37;;;;;;;7.28;4.43;;;;;;;;;;4995349;28;20050;-81
2022/04/20 08:22:42;;;;;;;5.60;4.18;;;;;;;;;;4992496;28;20046;-81
2022/04/20 08:25:40;;;;;;;5.47;3.97;;;;;;;;;;4978037;28;20050;-80
2022/04/20 08:28:10;;;;;;;5.80;4.22;;;;;;;;;;4994486;28;20501;-81
2022/04/20 08:30:54;;;;;;;6.32;3.97;;;;;;;;;;4994364;28;20046;-81
2022/04/20 08:33:47;;;;;;;4.75;3.95;;;;;;;;;;4978610;28;20133;-83
2022/04/20 08:36:20;;;;;;;7.47;4.43;;;;;;;;;;4978580;28;20073;-80
2022/04/20 08:38:48;;;;;;;7.40;4.60;;;;;;;;;;4994157;28;20038;-80
2022/04/20 08:44:29;;;;;;;5.40;4.32;;;;;;;;;;4994536;28;20046;-80
2022/04/20 08:47:18;;;;;;;5.85;4.60;;;;;;;;;;4994704;28;20046;-80
2022/04/20 08:49:46;;;;;;;8.93;5.57;;;;;;;;;;4977794;28;20456;-79
2022/04/20 08:52:37;;;;;;;14.15;9.88;;;;;;;;;;4993508;28;20058;-79
2022/04/20 08:55:08;;;;;;;8.88;6.22;;;;;;;;;;4994138;28;20402;-79
2022/04/20 08:57:43;;;;;;;7.55;5.57;;;;;;;;;;4997271;28;20378;-84
2022/04/20 09:00:19;;;;;;;6.50;4.65;;;;;;;;;;4995133;28;20046;-83
2022/04/20 09:02:50;;;;;;;15.73;11.98;;;;;;;;;;4963918;28;20199;-82
2022/04/20 09:05:43;;;;;;;18.83;12.85;;;;;;;;;;4998690;28;20051;-79
2022/04/20 09:08:38;;;;;;;18.45;13.50;;;;;;;;;;4994866;28;20212;-78
2022/04/20 09:11:42;;;;;;;8.27;6.20;;;;;;;;;;4994353;28;20050;-78
2022/04/20 09:14:13;;;;;;;16.40;11.63;;;;;;;;;;4994584;28;20052;-78
2022/04/20 09:20:24;;;;;;;14.80;10.07;;;;;;;;;;4994195;28;20050;-79
2022/04/20 09:23:17;;;;;;;6.07;5.03;;;;;;;;;;4994825;28;20042;-77
2022/04/20 09:26:12;;;;;;;12.20;9.57;;;;;;;;;;4976756;28;20049;-78
2022/04/20 09:32:42;;;;;;;10.63;5.05;;;;;;;;;;4993928;28;20505;-78
2022/04/20 09:35:21;;;;;;;6.35;5.65;;;;;;;;;;4975950;28;20496;-78
2022/04/20 09:38:13;;;;;;;12.77;6.75;;;;;;;;;;4994754;28;20042;-78
2022/04/20 09:41:31;;;;;;;9.40;5.63;;;;;;;;;;4976024;28;20050;-78
2022/04/20 09:44:11;;;;;;;7.53;5.70;;;;;;;;;;4994629;28;20050;-78
2022/04/20 09:50:01;;;;;;;7.38;4.97;;;;;;;;;;4994441;28;20133;-78
2022/04/20 09:52:41;;;;;;;6.97;4.68;;;;;;;;;;4977069;28;20124;-78
2022/04/20 09:55:26;;;;;;;7.72;5.03;;;;;;;;;;4994089;28;20089;-76
2022/04/20 09:58:18;;;;;;;5.32;4.28;;;;;;;;;;4993753;28;20042;-78
2022/04/20 10:00:48;;;;;;;5.78;4.35;;;;;;;;;;4976635;28;20417;-78
2022/04/20 10:03:29;;;;;;;7.28;4.47;;;;;;;;;;4994228;28;20038;-78
2022/04/20 10:05:58;;;;;;;6.63;5.00;;;;;;;;;;4994205;28;20508;-78
2022/04/20 10:08:29;;;;;;;7.70;4.47;;;;;;;;;;4976471;28;20449;-78
2022/04/20 10:11:01;;;;;;;6.40;4.93;;;;;;;;;;4976514;28;20489;-78
2022/04/20 10:13:29;;;;;;;6.35;4.60;;;;;;;;;;4994174;28;20047;-78
2022/04/20 10:19:55;;;;;;;6.25;4.10;;;;;;;;;;4994084;28;20109;-79
2022/04/20 10:22:48;;;;;;;7.63;4.00;;;;;;;;;;4975982;28;20046;-77
2022/04/20 10:25:17;;;;;;;6.25;4.32;;;;;;;;;;4976699;28;20077;-78
2022/04/20 10:27:44;;;;;;;7.88;4.05;;;;;;;;;;4993705;28;20042;-77
2022/04/20 10:30:38;;;;;;;7.30;4.85;;;;;;;;;;4976591;28;20047;-77
2022/04/20 10:33:13;;;;;;;8.65;4.60;;;;;;;;;;4961031;28;20054;-78
2022/04/20 10:36:00;;;;;;;8.70;4.82;;;;;;;;;;4976195;28;20046;-78
2022/04/20 10:38:31;;;;;;;7.07;4.85;;;;;;;;;;4976571;28;20046;-76
2022/04/20 10:41:21;;;;;;;7.45;4.70;;;;;;;;;;4976084;28;20050;-76
2022/04/20 10:44:06;;;;;;;7.10;4.80;;;;;;;;;;4976194;28;20065;-77
2022/04/20 10:46:35;;;;;;;6.45;4.78;;;;;;;;;;4993605;28;20058;-77
2022/04/20 10:49:16;;;;;;;6.90;4.40;;;;;;;;;;4976477;28;20046;-77
2022/04/20 10:51:46;;;;;;;8.27;4.93;;;;;;;;;;4976137;28;20457;-77
2022/04/20 10:54:29;;;;;;;7.00;4.35;;;;;;;;;;4976300;28;20402;-77
2022/04/20 10:57:08;;;;;;;7.00;4.60;;;;;;;;;;4976140;28;20137;-77
2022/04/20 10:59:38;;;;;;;6.28;4.90;;;;;;;;;;4976187;28;20035;-77
2022/04/20 11:02:09;;;;;;;7.03;4.95;;;;;;;;;;4975584;28;20149;-77
2022/04/20 11:04:46;;;;;;;6.47;4.78;;;;;;;;;;4993663;28;20428;-77
2022/04/20 11:07:23;;;;;;;7.15;5.03;;;;;;;;;;4993515;28;20409;-78
2022/04/20 11:09:59;;;;;;;9.07;5.65;;;;;;;;;;4975657;28;20468;-78
2022/04/20 11:18:39;;;;;;;7.40;4.60;;;;;;;;;;4993374;28;20108;-78
2022/04/20 11:21:24;;;;;;;7.25;4.45;;;;;;;;;;4965420;28;20421;-78
2022/04/20 11:23:53;;;;;;;6.07;4.90;;;;;;;;;;4963429;28;20409;-78
2022/04/20 11:26:31;;;;;;;8.65;4.68;;;;;;;;;;4979341;28;20054;-78
2022/04/20 11:29:22;;;;;;;6.55;3.80;;;;;;;;;;4979037;28;20042;-78
2022/04/20 11:31:58;;;;;;;9.85;4.28;;;;;;;;;;4996832;28;20050;-77
2022/04/20 11:34:49;;;;;;;5.45;4.00;;;;;;;;;;4974708;28;20142;-76
2022/04/20 11:37:19;;;;;;;5.10;4.13;;;;;;;;;;4996248;28;20548;-76
2022/04/20 11:39:48;;;;;;;5.10;3.58;;;;;;;;;;4996550;28;20042;-76
2022/04/20 11:42:22;;;;;;;6.60;4.30;;;;;;;;;;4997053;28;20093;-76
2022/04/20 11:44:50;;;;;;;4.75;4.03;;;;;;;;;;4978827;28;20076;-77
2022/04/20 11:47:28;;;;;;;5.13;4.05;;;;;;;;;;4978480;28;20042;-76
2022/04/20 11:49:59;;;;;;;4.68;3.80;;;;;;;;;;4978883;28;20046;-78
2022/04/20 11:53:02;;;;;;;5.25;3.30;;;;;;;;;;4992744;28;20061;-77
2022/04/20 11:55:54;;;;;;;8.63;6.70;;;;;;;;;;4996367;28;20056;-78
2022/04/20 11:58:22;;;;;;;9.93;6.22;;;;;;;;;;4979612;28;20069;-79
2022/04/20 12:01:03;;;;;;;6.85;4.40;;;;;;;;;;4996052;28;20401;-78
2022/04/20 12:03:40;;;;;;;5.10;3.70;;;;;;;;;;4996320;28;20102;-78
2022/04/20 12:06:13;;;;;;;4.72;2.75;;;;;;;;;;4996153;28;20046;-77
2022/04/20 12:08:42;;;;;;;4.00;3.08;;;;;;;;;;4995881;28;20089;-78
2022/04/20 12:11:12;;;;;;;8.73;3.47;;;;;;;;;;4995814;28;20054;-78
2022/04/20 12:13:43;;;;;;;3.33;2.80;;;;;;;;;;4978345;28;20054;-77
2022/04/20 12:16:15;;;;;;;4.07;3.55;;;;;;;;;;4978888;28;20128;-78
2022/04/20 12:18:46;;;;;;;4.03;2.90;;;;;;;;;;4996669;28;20034;-78
2022/04/20 12:21:35;;;;;;;4.82;2.70;;;;;;;;;;4996273;28;20497;-78
2022/04/20 12:24:03;;;;;;;4.10;3.20;;;;;;;;;;4994860;28;20125;-78
2022/04/20 12:26:46;;;;;;;3.00;2.70;;;;;;;;;;4995808;28;20057;-77
2022/04/20 12:29:14;;;;;;;5.15;3.15;;;;;;;;;;4977937;28;20043;-78
2022/04/20 12:31:50;;;;;;;3.50;3.08;;;;;;;;;;4978194;28;20049;-78
2022/04/20 12:34:23;;;;;;;4.65;3.38;;;;;;;;;;4978095;28;20101;-78
2022/04/20 12:37:14;;;;;;;5.82;2.42;;;;;;;;;;4977724;28;20046;-77
2022/04/20 12:39:47;;;;;;;3.33;2.80;;;;;;;;;;4977648;28;20054;-78
2022/04/20 12:42:40;;;;;;;4.22;2.80;;;;;;;;;;4994618;28;20038;-77
2022/04/20 12:45:46;;;;;;;6.68;3.63;;;;;;;;;;4987008;28;20057;-78
2022/04/20 12:50:55;;;;;;;4.50;2.97;;;;;;;;;;5014270;28;20347;-78
2022/04/20 12:53:22;;;;;;;5.47;3.17;;;;;;;;;;4996286;28;20523;-79
2022/04/20 13:04:03;;;;;;;4.05;3.25;;;;;;;;;;4975449;28;20077;-78
2022/04/20 13:06:56;;;;;;;5.82;3.40;;;;;;;;;;4974800;28;20137;-77
2022/04/20 13:09:28;;;;;;;6.18;3.58;;;;;;;;;;4958127;28;20077;-80
2022/04/20 13:11:56;;;;;;;6.57;3.50;;;;;;;;;;4974424;28;20055;-77
2022/04/20 13:14:24;;;;;;;5.40;3.33;;;;;;;;;;4973733;28;20047;-78
2022/04/20 13:16:59;;;;;;;4.57;3.50;;;;;;;;;;4973737;28;20134;-78
2022/04/20 13:19:30;;;;;;;5.10;3.38;;;;;;;;;;4975003;28;20469;-78
2022/04/20 13:21:59;;;;;;;6.35;3.55;;;;;;;;;;4973674;28;20505;-78
2022/04/20 13:30:11;;;;;;;4.47;3.30;;;;;;;;;;4974984;28;20494;-78
2022/04/20 13:32:41;;;;;;;8.90;3.60;;;;;;;;;;4974977;28;20049;-78
2022/04/20 13:35:09;;;;;;;5.82;3.65;;;;;;;;;;4974935;28;20031;-77
2022/04/20 13:37:37;;;;;;;6.13;3.47;;;;;;;;;;4973846;28;20494;-78
2022/04/20 13:40:07;;;;;;;6.20;3.72;;;;;;;;;;4974551;28;20042;-79
2022/04/20 13:42:37;;;;;;;8.10;3.92;;;;;;;;;;4973959;28;20121;-78
2022/04/20 13:45:05;;;;;;;5.85;3.50;;;;;;;;;;4974865;28;20133;-79
2022/04/20 13:47:34;;;;;;;5.13;3.10;;;;;;;;;;4974758;28;20141;-78
2022/04/20 13:50:06;;;;;;;4.90;3.75;;;;;;;;;;4984235;28;20058;-78
2022/04/20 13:52:36;;;;;;;7.47;3.78;;;;;;;;;;4981101;28;20557;-77
2022/04/20 13:55:07;;;;;;;4.43;3.50;;;;;;;;;;4977497;28;20048;-77
2022/04/20 13:57:42;;;;;;;7.50;3.50;;;;;;;;;;4974367;28;20049;-77
2022/04/20 14:00:13;;;;;;;5.95;3.65;;;;;;;;;;4973203;28;20047;-77
2022/04/20 14:02:42;;;;;;;7.07;3.42;;;;;;;;;;4997645;28;20088;-76
2022/04/20 14:05:14;;;;;;;5.97;3.90;;;;;;;;;;4995867;28;20045;-78
2022/04/20 14:07:42;;;;;;;4.55;3.53;;;;;;;;;;5013803;28;20489;-77
2022/04/20 14:10:11;;;;;;;5.43;3.75;;;;;;;;;;4995842;28;20141;-78
2022/04/20 14:12:42;;;;;;;7.85;3.53;;;;;;;;;;4995446;28;20555;-77
2022/04/20 14:15:11;;;;;;;5.22;3.90;;;;;;;;;;5013988;28;20473;-76
2022/04/20 14:17:42;;;;;;;6.20;4.05;;;;;;;;;;4995978;28;20397;-76
2022/04/20 14:20:18;;;;;;;8.02;4.10;;;;;;;;;;4995682;28;20134;-76
2022/04/20 14:23:11;;;;;;;5.57;4.18;;;;;;;;;;5013231;28;20042;-77
2022/04/20 14:34:45;;;;;;;4.20;3.55;;;;;;;;;;5012414;28;20046;-76
2022/04/20 14:37:14;;;;;;;7.53;4.28;;;;;;;;;;5012028;28;20076;-76
2022/04/20 14:39:42;;;;;;;4.85;3.97;;;;;;;;;;4994717;28;20041;-76
2022/04/20 14:42:11;;;;;;;5.78;4.32;;;;;;;;;;4994829;28;20124;-75
2022/04/20 14:44:40;;;;;;;4.95;4.13;;;;;;;;;;5011788;28;20037;-75
2022/04/20 14:47:09;;;;;;;5.50;4.40;;;;;;;;;;5011948;28;20041;-75
2022/04/20 14:49:37;;;;;;;7.50;4.35;;;;;;;;;;4994391;28;20038;-75
2022/04/20 14:52:09;;;;;;;4.88;3.97;;;;;;;;;;4994137;28;20042;-75
2022/04/20 14:54:37;;;;;;;5.53;4.30;;;;;;;;;;5014884;28;20030;-75
2022/04/20 14:57:22;;;;;;;5.10;4.13;;;;;;;;;;5015744;28;20361;-75
2022/04/20 14:59:50;;;;;;;4.90;4.25;;;;;;;;;;5015501;28;20084;-76
2022/04/20 15:02:18;;;;;;;7.20;4.80;;;;;;;;;;5014702;28;20045;-76
2022/04/20 15:04:46;;;;;;;6.80;4.63;;;;;;;;;;5011251;28;20132;-76
2022/04/20 15:07:14;;;;;;;6.40;4.40;;;;;;;;;;5013072;28;20042;-76
2022/04/20 15:09:47;;;;;;;7.35;4.25;;;;;;;;;;5014919;28;20088;-76
2022/04/20 15:12:15;;;;;;;4.85;3.92;;;;;;;;;;5015524;28;20034;-76
2022/04/20 15:14:43;;;;;;;6.88;4.88;;;;;;;;;;4997622;28;20442;-76
2022/04/20 15:17:11;;;;;;;6.50;5.00;;;;;;;;;;4995670;28;20068;-76
2022/04/20 15:19:38;;;;;;;8.13;5.03;;;;;;;;;;4998072;28;20125;-76
2022/04/20 15:22:09;;;;;;;6.80;4.65;;;;;;;;;;4997467;28;20097;-77
2022/04/20 15:24:36;;;;;;;6.65;4.57;;;;;;;;;;4998301;28;20128;-76
2022/04/20 15:27:04;;;;;;;6.03;4.95;;;;;;;;;;5016132;28;20112;-76
2022/04/20 15:29:33;;;;;;;6.63;5.38;;;;;;;;;;5015917;28;20045;-76
2022/04/20 15:32:02;;;;;;;7.13;5.78;;;;;;;;;;4998450;28;20049;-76
2022/04/20 15:34:30;;;;;;;7.18;4.93;;;;;;;;;;4998319;28;20052;-76
2022/04/20 15:37:05;;;;;;;7.20;5.70;;;;;;;;;;4990956;28;20044;-75
2022/04/20 15:39:34;;;;;;;9.65;7.18;;;;;;;;;;4981449;28;20054;-76
2022/04/20 15:42:20;;;;;;;8.50;5.40;;;;;;;;;;4998433;28;20050;-74
2022/04/20 15:44:49;;;;;;;15.05;8.70;;;;;;;;;;4998225;28;20088;-75
2022/04/20 15:47:18;;;;;;;12.07;8.43;;;;;;;;;;4997923;28;20555;-73
2022/04/20 15:49:45;;;;;;;10.88;7.38;;;;;;;;;;5015665;28;20041;-74
2022/04/20 15:52:14;;;;;;;14.38;9.13;;;;;;;;;;5015479;28;20492;-74
2022/04/20 15:54:43;;;;;;;10.40;7.80;;;;;;;;;;5015679;28;20042;-74
2022/04/20 16:00:17;;;;;;;9.35;7.40;;;;;;;;;;5015363;28;20057;-74
2022/04/20 16:02:46;;;;;;;11.52;9.45;;;;;;;;;;5015125;28;20054;-74
2022/04/20 16:05:16;;;;;;;12.70;10.20;;;;;;;;;;5014649;28;20046;-80
2022/04/20 16:07:43;;;;;;;9.93;7.95;;;;;;;;;;4997523;28;20128;-74
2022/04/20 16:10:13;;;;;;;12.07;9.07;;;;;;;;;;5015379;28;20125;-73
2022/04/20 16:12:43;;;;;;;17.15;12.55;;;;;;;;;;4997170;28;20096;-75
2022/04/20 16:15:12;;;;;;;8.48;7.65;;;;;;;;;;4997848;28;20528;-74
2022/04/20 16:17:42;;;;;;;8.40;7.57;;;;;;;;;;4997640;28;20042;-72
2022/04/20 16:20:11;;;;;;;14.18;10.55;;;;;;;;;;5015318;28;20049;-77
2022/04/20 16:22:39;;;;;;;11.30;9.43;;;;;;;;;;5013846;28;20485;-73
2022/04/20 16:25:07;;;;;;;11.68;9.20;;;;;;;;;;5015017;28;20468;-79
2022/04/20 16:27:37;;;;;;;10.80;9.25;;;;;;;;;;4981359;28;20038;-74
2022/04/20 16:30:05;;;;;;;11.52;8.93;;;;;;;;;;4997604;28;20064;-75
2022/04/20 16:32:33;;;;;;;10.95;8.25;;;;;;;;;;5014612;28;20048;-76
2022/04/20 16:35:02;;;;;;;10.85;9.13;;;;;;;;;;5015017;28;20448;-73
2022/04/20 16:37:36;;;;;;;14.17;11.63;;;;;;;;;;4997400;28;20053;-73
2022/04/20 16:40:05;;;;;;;10.27;8.65;;;;;;;;;;5014685;28;20268;-76
2022/04/20 16:42:43;;;;;;;13.10;10.50;;;;;;;;;;4996797;28;20070;-76
2022/04/20 16:45:36;;;;;;;18.40;14.55;;;;;;;;;;5003136;28;20041;-74
2022/04/20 16:48:06;;;;;;;13.30;11.05;;;;;;;;;;5007510;28;20488;-75
2022/04/20 16:53:58;;;;;;;14.88;11.32;;;;;;;;;;4995088;28;20042;-74
2022/04/20 16:56:26;;;;;;;18.55;13.80;;;;;;;;;;5011274;28;20045;-75
2022/04/20 16:58:55;;;;;;;11.75;10.20;;;;;;;;;;5014495;28;20045;-76
2022/04/20 17:01:24;;;;;;;13.68;11.75;;;;;;;;;;4996334;28;20053;-76
2022/04/20 17:03:53;;;;;;;46.22;33.40;;;;;;;;;;5014769;28;20068;-77
2022/04/20 17:06:21;;;;;;;92.88;62.85;;;;;;;;;;4996923;28;20038;-77
2022/04/20 17:08:48;;;;;;;22.58;17.67;;;;;;;;;;4996648;28;20052;-76
2022/04/20 17:11:17;;;;;;;31.30;22.42;;;;;;;;;;5014539;28;20061;-77
2022/04/20 17:13:45;;;;;;;13.57;12.18;;;;;;;;;;4996251;28;20357;-76
2022/04/20 17:16:16;;;;;;;21.27;17.23;;;;;;;;;;4996003;28;20113;-81
2022/04/20 17:19:12;;;;;;;15.55;11.43;;;;;;;;;;5013587;28;20137;-75